Time;durP1;ratioP1;P1;durP2;ratioP2;P2;SDS_P1;SDS_P2;PMS_P1;PMS_P2;Temp;Humidity;BMP_temperature;BMP_pressure;BME280_temperature;BME280_humidity;BME280_pressure;Samples;Min_cycle;Max_cycle;Signal;HPM_P1;HPM_P2
2022/02/25 00:02:03;;;;;;;13.95;5.50;;;;;;;;;;10538506;28;20024;-58
2022/02/25 00:07:04;;;;;;;18.02;5.80;;;;;;;;;;10534973;28;20102;-58
2022/02/25 00:12:04;;;;;;;17.08;4.93;;;;;;;;;;10538023;28;20480;-53
2022/02/25 00:17:05;;;;;;;17.52;5.32;;;;;;;;;;10534489;28;20455;-55
2022/02/25 00:22:06;;;;;;;21.88;5.45;;;;;;;;;;10537757;28;20520;-56
2022/02/25 00:27:06;;;;;;;14.05;5.80;;;;;;;;;;10538016;28;20034;-56
2022/02/25 00:32:07;;;;;;;12.40;5.27;;;;;;;;;;10538097;28;20383;-57
2022/02/25 00:37:08;;;;;;;14.00;5.65;;;;;;;;;;10536167;28;20460;-56
2022/02/25 00:42:10;;;;;;;10.37;5.50;;;;;;;;;;10537252;28;20024;-56
2022/02/25 00:47:11;;;;;;;13.45;5.50;;;;;;;;;;10535981;28;20568;-56
2022/02/25 00:52:11;;;;;;;9.73;5.13;;;;;;;;;;10536783;28;20122;-58
2022/02/25 00:57:12;;;;;;;12.15;5.68;;;;;;;;;;10536072;28;20976;-57
2022/02/25 01:02:12;;;;;;;12.73;5.77;;;;;;;;;;10536982;28;20028;-56
2022/02/25 01:07:13;;;;;;;10.90;5.82;;;;;;;;;;10536234;28;20552;-61
2022/02/25 01:12:13;;;;;;;10.75;5.70;;;;;;;;;;10536018;28;20173;-56
2022/02/25 01:17:13;;;;;;;10.17;5.47;;;;;;;;;;10533312;28;20024;-55
2022/02/25 01:22:14;;;;;;;18.33;5.53;;;;;;;;;;10533054;28;20498;-57
2022/02/25 01:27:14;;;;;;;10.60;5.13;;;;;;;;;;10535366;28;20032;-57
2022/02/25 01:32:15;;;;;;;10.73;5.53;;;;;;;;;;10535263;28;20165;-56
2022/02/25 01:37:16;;;;;;;15.17;5.90;;;;;;;;;;10535442;28;20453;-57
2022/02/25 01:42:16;;;;;;;10.60;5.28;;;;;;;;;;10535266;28;20105;-62
2022/02/25 01:47:17;;;;;;;11.32;4.88;;;;;;;;;;10534231;28;20437;-59
2022/02/25 01:52:18;;;;;;;12.30;4.68;;;;;;;;;;10534413;28;20487;-59
2022/02/25 01:57:18;;;;;;;9.63;5.25;;;;;;;;;;10532813;28;20196;-60
2022/02/25 02:02:18;;;;;;;14.17;4.37;;;;;;;;;;10533979;28;20028;-60
2022/02/25 02:07:19;;;;;;;8.00;4.97;;;;;;;;;;10533686;28;20472;-59
2022/02/25 02:12:19;;;;;;;9.83;4.73;;;;;;;;;;10533731;28;20040;-60
2022/02/25 02:17:21;;;;;;;13.47;5.50;;;;;;;;;;10533620;28;20457;-60
2022/02/25 02:22:25;;;;;;;7.15;4.65;;;;;;;;;;10509469;28;20062;-60
2022/02/25 02:28:17;;;;;;;7.78;4.95;;;;;;;;;;10533725;28;20028;-60
2022/02/25 02:32:47;;;;;;;8.25;4.13;;;;;;;;;;10533211;28;20028;-60
2022/02/25 02:37:48;;;;;;;7.68;4.38;;;;;;;;;;10533758;28;20035;-55
2022/02/25 02:42:48;;;;;;;8.40;4.63;;;;;;;;;;10533049;28;20028;-57
2022/02/25 02:47:48;;;;;;;6.63;4.65;;;;;;;;;;10532943;28;20035;-56
2022/02/25 02:52:49;;;;;;;7.47;4.60;;;;;;;;;;10533465;28;20028;-60
2022/02/25 02:57:50;;;;;;;7.83;4.80;;;;;;;;;;10532562;28;20449;-59
2022/02/25 03:02:51;;;;;;;7.72;4.10;;;;;;;;;;10531408;28;20421;-59
2022/02/25 03:07:52;;;;;;;8.55;5.10;;;;;;;;;;10532891;28;20024;-59
2022/02/25 03:12:52;;;;;;;8.02;4.43;;;;;;;;;;10536628;28;20542;-58
2022/02/25 03:17:52;;;;;;;10.63;4.80;;;;;;;;;;10540528;28;20027;-58
2022/02/25 03:22:53;;;;;;;10.23;4.77;;;;;;;;;;10534138;28;20107;-58
2022/02/25 03:27:53;;;;;;;7.13;4.32;;;;;;;;;;10540601;28;20069;-56
2022/02/25 03:32:54;;;;;;;10.35;4.38;;;;;;;;;;10539914;28;20024;-59
2022/02/25 03:37:54;;;;;;;6.75;4.57;;;;;;;;;;10540388;28;20041;-58
2022/02/25 03:42:55;;;;;;;8.73;4.20;;;;;;;;;;10539612;28;20059;-59
2022/02/25 03:47:56;;;;;;;13.20;4.40;;;;;;;;;;10539285;28;20453;-57
2022/02/25 03:52:56;;;;;;;6.93;4.10;;;;;;;;;;10539722;28;20043;-60
2022/02/25 03:57:56;;;;;;;10.47;4.00;;;;;;;;;;10538802;28;20506;-60
2022/02/25 04:02:57;;;;;;;6.33;4.17;;;;;;;;;;10538852;28;20032;-57
2022/02/25 04:07:57;;;;;;;7.85;4.07;;;;;;;;;;10538999;28;20468;-57
2022/02/25 04:12:58;;;;;;;9.65;4.70;;;;;;;;;;10539062;28;20576;-59
2022/02/25 04:17:58;;;;;;;7.82;4.65;;;;;;;;;;10538640;28;20077;-57
2022/02/25 04:22:59;;;;;;;9.13;4.30;;;;;;;;;;10533274;28;20452;-62
2022/02/25 04:27:59;;;;;;;6.37;4.03;;;;;;;;;;10534442;28;20473;-58
2022/02/25 04:32:59;;;;;;;6.37;4.10;;;;;;;;;;10537661;28;20457;-58
2022/02/25 04:38:00;;;;;;;7.50;4.40;;;;;;;;;;10537963;28;20103;-57
2022/02/25 04:43:01;;;;;;;8.57;3.80;;;;;;;;;;10536015;28;20951;-58
2022/02/25 04:48:02;;;;;;;6.30;3.80;;;;;;;;;;10536859;28;20032;-62
2022/02/25 04:53:02;;;;;;;6.18;4.30;;;;;;;;;;10537462;28;20107;-56
2022/02/25 04:58:02;;;;;;;4.40;3.70;;;;;;;;;;10535062;28;20483;-58
2022/02/25 05:03:03;;;;;;;5.10;4.03;;;;;;;;;;10536511;28;20512;-59
2022/02/25 05:08:03;;;;;;;6.43;3.77;;;;;;;;;;10536575;28;20465;-58
2022/02/25 05:13:04;;;;;;;9.50;4.25;;;;;;;;;;10536435;28;20479;-57
2022/02/25 05:23:24;;;;;;;9.05;3.83;;;;;;;;;;10535733;28;20028;-57
2022/02/25 05:28:24;;;;;;;6.03;4.10;;;;;;;;;;10532344;28;20394;-57
2022/02/25 05:33:24;;;;;;;6.40;3.80;;;;;;;;;;10531827;28;20024;-57
2022/02/25 05:38:25;;;;;;;5.70;3.23;;;;;;;;;;10534931;28;20436;-56
2022/02/25 05:43:26;;;;;;;5.90;3.88;;;;;;;;;;10534515;28;20863;-61
2022/02/25 05:48:26;;;;;;;5.53;3.70;;;;;;;;;;10534850;28;20028;-58
2022/02/25 05:53:27;;;;;;;6.47;3.87;;;;;;;;;;10534843;28;20085;-57
2022/02/25 05:58:27;;;;;;;8.83;3.77;;;;;;;;;;10534473;28;20489;-57
2022/02/25 06:03:27;;;;;;;4.72;3.38;;;;;;;;;;10534578;28;20319;-60
2022/02/25 06:08:28;;;;;;;5.20;3.37;;;;;;;;;;10533840;28;20395;-62
2022/02/25 06:13:29;;;;;;;6.40;3.90;;;;;;;;;;10534068;28;20028;-59
2022/02/25 06:18:29;;;;;;;7.80;3.90;;;;;;;;;;10533086;28;20028;-59
2022/02/25 06:23:30;;;;;;;8.43;3.40;;;;;;;;;;10534541;28;20035;-56
2022/02/25 06:28:31;;;;;;;5.30;3.20;;;;;;;;;;10533151;28;20530;-61
2022/02/25 06:33:31;;;;;;;14.15;4.68;;;;;;;;;;10530594;28;20042;-62
2022/02/25 06:38:32;;;;;;;5.50;3.45;;;;;;;;;;10533964;28;20050;-58
2022/02/25 06:43:32;;;;;;;10.13;3.53;;;;;;;;;;10529359;28;20027;-60
2022/02/25 06:48:32;;;;;;;6.72;4.18;;;;;;;;;;10538477;28;20032;-61
2022/02/25 06:53:33;;;;;;;6.87;3.83;;;;;;;;;;10541280;28;20028;-63
2022/02/25 06:58:34;;;;;;;10.57;4.80;;;;;;;;;;10539402;28;20340;-60
2022/02/25 07:03:35;;;;;;;15.23;4.90;;;;;;;;;;10540215;28;20275;-65
2022/02/25 07:08:36;;;;;;;18.08;5.88;;;;;;;;;;10540767;28;20030;-65
2022/02/25 07:13:36;;;;;;;8.45;5.25;;;;;;;;;;10540194;28;20025;-65
2022/02/25 07:18:36;;;;;;;11.87;5.63;;;;;;;;;;10539364;28;20028;-66
2022/02/25 07:23:39;;;;;;;14.70;6.60;;;;;;;;;;10538322;28;20448;-65
2022/02/25 07:28:40;;;;;;;16.40;6.78;;;;;;;;;;10537672;28;20498;-65
2022/02/25 07:33:41;;;;;;;16.10;6.57;;;;;;;;;;10536742;28;20111;-60
2022/02/25 07:38:41;;;;;;;35.53;7.22;;;;;;;;;;10539441;28;20123;-66
2022/02/25 07:43:41;;;;;;;10.55;6.30;;;;;;;;;;10535258;28;20020;-67
2022/02/25 07:48:43;;;;;;;11.13;6.50;;;;;;;;;;10535934;28;20424;-66
2022/02/25 07:53:45;;;;;;;11.05;5.80;;;;;;;;;;10539028;28;20418;-62
2022/02/25 07:58:46;;;;;;;12.23;6.80;;;;;;;;;;10538337;28;20040;-60
2022/02/25 08:03:47;;;;;;;11.65;6.00;;;;;;;;;;10537961;28;20028;-62
2022/02/25 08:08:47;;;;;;;12.32;6.15;;;;;;;;;;10537383;28;20024;-64
2022/02/25 08:13:47;;;;;;;11.00;6.07;;;;;;;;;;10537470;28;20024;-62
2022/02/25 08:18:48;;;;;;;16.17;6.60;;;;;;;;;;10537499;28;20532;-64
2022/02/25 08:23:48;;;;;;;14.48;6.63;;;;;;;;;;10537071;28;20039;-64
2022/02/25 08:28:49;;;;;;;12.63;6.60;;;;;;;;;;10536997;28;20024;-64
2022/02/25 08:33:49;;;;;;;15.07;7.07;;;;;;;;;;10536753;28;20448;-60
2022/02/25 08:38:49;;;;;;;12.18;6.85;;;;;;;;;;10536914;28;20437;-64
2022/02/25 08:43:50;;;;;;;13.97;6.17;;;;;;;;;;10536015;28;20020;-65
2022/02/25 08:48:50;;;;;;;12.45;6.53;;;;;;;;;;10533106;28;20452;-63
2022/02/25 08:53:51;;;;;;;10.23;5.43;;;;;;;;;;10536339;28;20040;-65
2022/02/25 08:58:52;;;;;;;11.60;6.07;;;;;;;;;;10532559;28;20372;-64
2022/02/25 09:03:52;;;;;;;12.70;6.10;;;;;;;;;;10535384;28;20433;-65
2022/02/25 09:08:53;;;;;;;10.88;6.97;;;;;;;;;;10535449;28;20383;-64
2022/02/25 09:13:53;;;;;;;13.40;6.00;;;;;;;;;;10536221;28;20024;-64
2022/02/25 09:18:55;;;;;;;11.47;5.97;;;;;;;;;;10535304;28;20089;-64
2022/02/25 09:23:56;;;;;;;15.02;5.55;;;;;;;;;;10535491;28;20819;-63
2022/02/25 09:28:58;;;;;;;9.05;6.00;;;;;;;;;;10535411;28;20024;-65
2022/02/25 09:33:58;;;;;;;9.63;5.65;;;;;;;;;;10535380;28;20032;-62
2022/02/25 09:38:59;;;;;;;8.50;5.57;;;;;;;;;;10533874;28;20032;-63
2022/02/25 09:43:59;;;;;;;13.40;6.13;;;;;;;;;;10535355;28;20035;-63
2022/02/25 09:49:00;;;;;;;10.20;5.63;;;;;;;;;;10533496;28;20467;-64
2022/02/25 09:54:00;;;;;;;9.82;5.60;;;;;;;;;;10533191;28;20028;-60
2022/02/25 09:59:02;;;;;;;12.23;5.83;;;;;;;;;;10532578;28;20440;-65
2022/02/25 10:04:13;;;;;;;10.18;5.70;;;;;;;;;;10530735;28;20858;-59
2022/02/25 10:09:33;;;;;;;9.93;5.47;;;;;;;;;;10533992;28;20250;-64
2022/02/25 10:14:44;;;;;;;8.77;5.38;;;;;;;;;;10533913;28;20024;-64
2022/02/25 10:19:49;;;;;;;8.70;5.70;;;;;;;;;;10533688;28;20117;-63
2022/02/25 10:24:54;;;;;;;9.07;5.55;;;;;;;;;;10534147;28;20387;-63
2022/02/25 10:30:11;;;;;;;10.65;5.88;;;;;;;;;;10533816;28;20089;-64
2022/02/25 10:35:41;;;;;;;7.97;5.82;;;;;;;;;;10532586;28;20108;-60
2022/02/25 10:40:45;;;;;;;6.72;4.82;;;;;;;;;;10519757;28;20120;-65
2022/02/25 10:45:47;;;;;;;9.95;5.90;;;;;;;;;;10533059;28;20503;-65
2022/02/25 10:50:53;;;;;;;9.18;5.45;;;;;;;;;;10533092;28;20047;-61
2022/02/25 10:56:05;;;;;;;12.15;5.97;;;;;;;;;;10532603;28;20016;-65
2022/02/25 11:01:06;;;;;;;11.15;5.32;;;;;;;;;;10532542;28;20050;-59
2022/02/25 11:06:10;;;;;;;11.95;5.57;;;;;;;;;;10529902;28;20149;-62
2022/02/25 11:11:11;;;;;;;7.57;5.03;;;;;;;;;;10532553;28;20027;-64
2022/02/25 11:16:12;;;;;;;7.80;5.18;;;;;;;;;;10529879;28;20129;-64
2022/02/25 11:21:13;;;;;;;6.55;4.88;;;;;;;;;;10532393;28;20391;-64
2022/02/25 11:26:20;;;;;;;11.95;4.88;;;;;;;;;;10532045;28;20153;-64
2022/02/25 11:31:21;;;;;;;8.77;5.18;;;;;;;;;;10532675;28;20049;-62
2022/02/25 11:36:41;;;;;;;11.20;5.00;;;;;;;;;;10540474;28;20218;-64
2022/02/25 11:42:06;;;;;;;11.93;4.90;;;;;;;;;;10539938;28;20102;-65
2022/02/25 11:47:08;;;;;;;10.80;4.82;;;;;;;;;;10539648;28;20042;-65
2022/02/25 11:52:09;;;;;;;7.30;4.22;;;;;;;;;;10539474;28;20028;-64
2022/02/25 11:57:14;;;;;;;5.65;4.13;;;;;;;;;;10538879;28;20060;-63
2022/02/25 12:02:22;;;;;;;6.97;4.43;;;;;;;;;;10539336;28;20032;-65
2022/02/25 12:07:30;;;;;;;6.87;4.20;;;;;;;;;;10539687;28;20043;-65
2022/02/25 12:12:30;;;;;;;7.68;4.20;;;;;;;;;;10538620;28;20035;-64
2022/02/25 12:17:43;;;;;;;8.30;4.43;;;;;;;;;;10535207;28;20514;-64
2022/02/25 12:23:15;;;;;;;6.60;4.18;;;;;;;;;;10534744;28;20396;-64
2022/02/25 12:33:41;;;;;;;7.60;4.10;;;;;;;;;;10537714;28;20028;-61
2022/02/25 12:38:47;;;;;;;6.15;3.85;;;;;;;;;;10537411;28;20532;-64
2022/02/25 12:43:58;;;;;;;5.78;3.72;;;;;;;;;;10536578;28;20069;-64
2022/02/25 12:48:59;;;;;;;8.00;4.28;;;;;;;;;;10537265;28;20104;-64
2022/02/25 12:54:03;;;;;;;7.88;4.43;;;;;;;;;;10536718;28;20127;-62
2022/02/25 12:59:05;;;;;;;7.63;4.03;;;;;;;;;;10536483;28;20043;-63
2022/02/25 13:04:19;;;;;;;8.15;4.25;;;;;;;;;;10536815;28;20031;-64
2022/02/25 13:09:26;;;;;;;7.03;4.07;;;;;;;;;;10537337;28;20040;-59
2022/02/25 13:14:29;;;;;;;7.07;4.20;;;;;;;;;;10535825;28;20360;-59
2022/02/25 13:19:42;;;;;;;8.60;4.25;;;;;;;;;;10532759;28;20054;-61
2022/02/25 13:24:57;;;;;;;6.25;4.18;;;;;;;;;;10535101;28;20432;-59
2022/02/25 13:29:57;;;;;;;5.53;4.13;;;;;;;;;;10530972;28;20035;-60
2022/02/25 13:34:59;;;;;;;6.60;3.90;;;;;;;;;;10533855;28;20406;-58
2022/02/25 13:39:59;;;;;;;5.13;4.05;;;;;;;;;;10533932;28;20111;-60
2022/02/25 13:45:00;;;;;;;11.30;3.72;;;;;;;;;;10533297;28;20114;-60
2022/02/25 13:55:25;;;;;;;5.07;3.78;;;;;;;;;;10533268;28;20036;-60
2022/02/25 14:00:30;;;;;;;3.80;3.13;;;;;;;;;;10533370;28;20503;-59
2022/02/25 14:05:36;;;;;;;8.48;3.50;;;;;;;;;;10534352;28;20047;-59
2022/02/25 14:10:37;;;;;;;6.60;3.75;;;;;;;;;;10534374;28;20020;-60
2022/02/25 14:15:39;;;;;;;5.60;3.25;;;;;;;;;;10533527;28;20407;-60
2022/02/25 14:20:42;;;;;;;5.40;3.45;;;;;;;;;;10530683;28;20371;-60
2022/02/25 14:25:49;;;;;;;7.13;3.67;;;;;;;;;;10530775;28;20031;-60
2022/02/25 14:30:50;;;;;;;9.77;4.03;;;;;;;;;;10529352;28;20111;-60
2022/02/25 14:36:29;;;;;;;8.13;3.75;;;;;;;;;;10529138;28;20028;-60
2022/02/25 14:41:30;;;;;;;6.28;3.58;;;;;;;;;;10442556;28;20068;-59
2022/02/25 14:46:30;;;;;;;9.27;3.50;;;;;;;;;;10443502;28;20178;-60
2022/02/25 14:51:31;;;;;;;9.93;4.10;;;;;;;;;;10442786;28;20086;-60
2022/02/25 14:56:31;;;;;;;12.27;4.55;;;;;;;;;;10443181;28;20052;-59
2022/02/25 15:01:31;;;;;;;11.67;4.20;;;;;;;;;;10443793;28;20029;-61
2022/02/25 15:06:32;;;;;;;11.73;3.70;;;;;;;;;;10443908;28;20505;-65
2022/02/25 15:11:33;;;;;;;12.13;3.77;;;;;;;;;;10506787;28;20040;-59
2022/02/25 15:16:33;;;;;;;11.75;4.00;;;;;;;;;;10540662;28;20457;-62
2022/02/25 15:21:35;;;;;;;8.93;3.60;;;;;;;;;;10541295;28;20035;-60
2022/02/25 15:26:35;;;;;;;11.25;3.97;;;;;;;;;;10540311;28;20471;-60
2022/02/25 15:31:36;;;;;;;7.60;3.53;;;;;;;;;;10541497;28;20078;-60
2022/02/25 15:36:36;;;;;;;11.68;3.95;;;;;;;;;;10534406;28;20364;-60
2022/02/25 15:41:38;;;;;;;12.10;3.97;;;;;;;;;;10540020;28;20020;-60
2022/02/25 15:46:39;;;;;;;22.73;4.47;;;;;;;;;;10539710;28;20399;-60
2022/02/25 15:51:39;;;;;;;8.10;3.50;;;;;;;;;;10539107;28;20034;-60
2022/02/25 15:56:40;;;;;;;12.63;3.97;;;;;;;;;;10536850;28;20048;-60
2022/02/25 16:01:41;;;;;;;14.98;4.47;;;;;;;;;;10538363;28;20973;-62
2022/02/25 16:06:41;;;;;;;11.10;4.28;;;;;;;;;;10535441;28;20028;-62
2022/02/25 16:11:42;;;;;;;14.75;4.40;;;;;;;;;;10534881;28;20094;-59
2022/02/25 16:16:43;;;;;;;11.60;4.72;;;;;;;;;;10534637;28;20020;-60
2022/02/25 16:21:43;;;;;;;27.05;5.85;;;;;;;;;;10538358;28;20047;-60
2022/02/25 16:26:43;;;;;;;22.43;6.37;;;;;;;;;;10537954;28;20073;-60
2022/02/25 16:31:44;;;;;;;27.77;7.03;;;;;;;;;;10538042;28;20475;-60
2022/02/25 16:36:45;;;;;;;20.45;6.53;;;;;;;;;;10533601;28;20138;-59
2022/02/25 16:41:45;;;;;;;27.48;7.00;;;;;;;;;;10534634;28;20055;-59
2022/02/25 16:46:45;;;;;;;23.63;7.35;;;;;;;;;;10537171;28;20024;-59
2022/02/25 16:51:46;;;;;;;28.33;6.43;;;;;;;;;;10537042;28;20073;-59
2022/02/25 16:56:46;;;;;;;21.93;5.20;;;;;;;;;;10537065;28;20920;-60
2022/02/25 17:01:47;;;;;;;27.37;6.30;;;;;;;;;;10536826;28;20085;-59
2022/02/25 17:06:47;;;;;;;15.57;4.67;;;;;;;;;;10536324;28;20461;-59
2022/02/25 17:11:49;;;;;;;16.53;5.17;;;;;;;;;;10536568;28;20111;-64
2022/02/25 17:16:50;;;;;;;21.85;6.45;;;;;;;;;;10536282;28;20437;-59
2022/02/25 17:21:50;;;;;;;28.90;4.93;;;;;;;;;;10535732;28;20028;-59
2022/02/25 17:26:51;;;;;;;18.77;5.28;;;;;;;;;;10535320;28;20483;-56
2022/02/25 17:31:51;;;;;;;15.87;4.00;;;;;;;;;;10533640;28;20051;-57
2022/02/25 17:36:51;;;;;;;13.53;4.33;;;;;;;;;;10535429;28;20433;-52
2022/02/25 17:41:53;;;;;;;10.33;3.93;;;;;;;;;;10532064;28;20564;-65
2022/02/25 17:46:53;;;;;;;15.13;4.07;;;;;;;;;;10534637;28;20060;-55
2022/02/25 17:51:54;;;;;;;16.33;4.20;;;;;;;;;;10531286;28;20487;-57
2022/02/25 17:56:56;;;;;;;13.10;3.88;;;;;;;;;;10532982;28;20048;-56
2022/02/25 18:01:56;;;;;;;13.18;3.88;;;;;;;;;;10533836;28;20600;-58
2022/02/25 18:06:57;;;;;;;17.38;3.53;;;;;;;;;;10533923;28;20109;-60
2022/02/25 18:11:57;;;;;;;7.90;3.17;;;;;;;;;;10533830;28;20130;-59
2022/02/25 18:16:58;;;;;;;11.27;3.05;;;;;;;;;;10534539;28;20043;-52
2022/02/25 18:21:58;;;;;;;8.77;3.33;;;;;;;;;;10533789;28;20415;-51
2022/02/25 18:26:59;;;;;;;9.13;3.50;;;;;;;;;;10533367;28;20028;-58
2022/02/25 18:31:59;;;;;;;7.90;3.13;;;;;;;;;;10533407;28;20224;-53
2022/02/25 18:36:59;;;;;;;10.10;3.05;;;;;;;;;;10532852;28;20032;-53
2022/02/25 18:42:02;;;;;;;14.73;4.20;;;;;;;;;;10532666;28;20039;-55
2022/02/25 18:47:03;;;;;;;13.05;3.30;;;;;;;;;;10531003;28;20364;-51
2022/02/25 18:52:04;;;;;;;8.15;3.35;;;;;;;;;;10531726;28;20028;-52
2022/02/25 18:57:08;;;;;;;9.73;3.03;;;;;;;;;;10529631;28;20044;-53
2022/02/25 19:02:11;;;;;;;16.30;4.28;;;;;;;;;;10530977;28;20103;-69
2022/02/25 19:07:12;;;;;;;13.50;3.67;;;;;;;;;;10533199;28;20024;-68
2022/02/25 19:12:12;;;;;;;12.05;3.97;;;;;;;;;;10532776;28;20054;-68
2022/02/25 19:17:15;;;;;;;9.18;3.50;;;;;;;;;;10532044;28;20038;-66
2022/02/25 19:22:15;;;;;;;13.73;3.97;;;;;;;;;;10531152;28;20580;-67
2022/02/25 19:27:16;;;;;;;12.95;3.08;;;;;;;;;;10530790;28;20038;-68
2022/02/25 19:32:16;;;;;;;10.40;2.85;;;;;;;;;;10529472;28;20033;-67
2022/02/25 19:37:17;;;;;;;10.07;2.97;;;;;;;;;;10524785;28;20082;-63
2022/02/25 19:42:19;;;;;;;7.85;2.60;;;;;;;;;;10529505;28;20509;-67
2022/02/25 19:47:20;;;;;;;6.28;2.88;;;;;;;;;;10532269;28;20024;-62
2022/02/25 19:52:21;;;;;;;9.23;2.80;;;;;;;;;;10531664;28;20024;-67
2022/02/25 19:57:22;;;;;;;12.75;2.65;;;;;;;;;;10533804;28;20131;-67
2022/02/25 20:02:24;;;;;;;5.93;2.50;;;;;;;;;;10535766;28;20463;-65
2022/02/25 20:07:26;;;;;;;6.63;2.50;;;;;;;;;;10534563;28;20468;-68
2022/02/25 20:12:26;;;;;;;5.63;2.10;;;;;;;;;;10538250;28;20499;-62
2022/02/25 20:17:27;;;;;;;10.77;2.40;;;;;;;;;;10537497;28;20054;-64
2022/02/25 20:22:28;;;;;;;8.73;2.23;;;;;;;;;;10538207;28;20472;-63
2022/02/25 20:27:28;;;;;;;6.38;1.88;;;;;;;;;;10537549;28;20601;-68
2022/02/25 20:32:28;;;;;;;4.90;2.20;;;;;;;;;;10537536;28;20054;-60
2022/02/25 20:37:29;;;;;;;6.43;2.50;;;;;;;;;;10536428;28;20436;-64
2022/02/25 20:42:30;;;;;;;4.72;2.17;;;;;;;;;;10537073;28;20852;-63
2022/02/25 20:47:30;;;;;;;7.97;2.20;;;;;;;;;;10535562;28;20032;-58
2022/02/25 20:52:32;;;;;;;2.42;1.77;;;;;;;;;;10536518;28;20036;-64
2022/02/25 20:57:34;;;;;;;4.72;1.95;;;;;;;;;;10534620;28;20047;-64
2022/02/25 21:02:35;;;;;;;7.28;2.00;;;;;;;;;;10535330;28;20038;-68
2022/02/25 21:07:36;;;;;;;4.65;2.10;;;;;;;;;;10532590;28;20035;-70
2022/02/25 21:12:36;;;;;;;9.48;2.65;;;;;;;;;;10533445;28;20031;-60
2022/02/25 21:17:37;;;;;;;5.38;1.77;;;;;;;;;;10536234;28;20020;-62
2022/02/25 21:22:39;;;;;;;5.30;2.03;;;;;;;;;;10535487;28;20242;-63
2022/02/25 21:27:39;;;;;;;5.88;2.15;;;;;;;;;;10533851;28;20039;-62
2022/02/25 21:32:44;;;;;;;7.20;1.77;;;;;;;;;;10533560;28;20024;-64
2022/02/25 21:37:45;;;;;;;6.40;2.05;;;;;;;;;;10533929;28;20031;-63
2022/02/25 21:42:47;;;;;;;2.42;1.35;;;;;;;;;;10535208;28;20047;-63
2022/02/25 21:47:47;;;;;;;3.20;1.67;;;;;;;;;;10541150;28;20028;-64
2022/02/25 21:52:49;;;;;;;3.55;1.70;;;;;;;;;;10537559;28;20244;-64
2022/02/25 21:57:49;;;;;;;2.95;1.98;;;;;;;;;;10534605;28;20449;-64
2022/02/25 22:02:49;;;;;;;3.43;1.83;;;;;;;;;;10534487;28;20053;-64
2022/02/25 22:07:52;;;;;;;3.55;1.40;;;;;;;;;;10534392;28;20472;-63
2022/02/25 22:12:52;;;;;;;5.10;1.60;;;;;;;;;;10531378;28;20024;-63
2022/02/25 22:17:53;;;;;;;20.87;1.97;;;;;;;;;;10530628;28;20027;-63
2022/02/25 22:22:53;;;;;;;4.80;1.52;;;;;;;;;;10532791;28;20452;-63
2022/02/25 22:27:54;;;;;;;12.40;1.80;;;;;;;;;;10533718;28;20032;-64
2022/02/25 22:32:54;;;;;;;16.63;1.98;;;;;;;;;;10530590;28;20722;-63
2022/02/25 22:37:55;;;;;;;11.20;2.05;;;;;;;;;;10532378;28;20034;-64
2022/02/25 22:42:56;;;;;;;6.03;1.53;;;;;;;;;;10531528;28;20111;-63
2022/02/25 22:47:57;;;;;;;7.47;1.95;;;;;;;;;;10532163;28;20464;-63
2022/02/25 23:03:35;;;;;;;4.15;1.63;;;;;;;;;;10532764;28;20051;-65
2022/02/25 23:08:36;;;;;;;7.93;1.87;;;;;;;;;;10532387;28;20067;-62
2022/02/25 23:13:36;;;;;;;7.90;1.97;;;;;;;;;;10533029;28;20449;-65
2022/02/25 23:18:36;;;;;;;2.05;1.17;;;;;;;;;;10529910;28;20830;-65
2022/02/25 23:23:37;;;;;;;5.37;1.67;;;;;;;;;;10529747;28;20455;-65
2022/02/25 23:28:37;;;;;;;5.22;2.33;;;;;;;;;;10535029;28;20472;-65
2022/02/25 23:33:38;;;;;;;8.90;1.67;;;;;;;;;;10540390;28;20546;-65
2022/02/25 23:38:38;;;;;;;4.53;1.80;;;;;;;;;;10540057;28;20445;-61
2022/02/25 23:43:38;;;;;;;3.50;1.90;;;;;;;;;;10540076;28;20111;-61
2022/02/25 23:48:39;;;;;;;3.97;1.60;;;;;;;;;;10539632;28;20085;-63
2022/02/25 23:53:39;;;;;;;3.43;1.80;;;;;;;;;;10539365;28;20103;-64
2022/02/25 23:58:40;;;;;;;3.23;1.40;;;;;;;;;;10539172;28;20465;-64
